sensor_id;sensor_type;location;lat;lon;timestamp;P1;durP1;ratioP1;P2;durP2;ratioP2
45198;SDS011;30941;46.422;18.772;2022-10-30T00:00:28;256.40;;;71.40;;
45198;SDS011;30941;46.422;18.772;2022-10-30T00:02:54;263.05;;;72.10;;
45198;SDS011;30941;46.422;18.772;2022-10-30T00:05:20;352.70;;;72.75;;
45198;SDS011;30941;46.422;18.772;2022-10-30T00:07:46;369.55;;;72.70;;
45198;SDS011;30941;46.422;18.772;2022-10-30T00:10:12;230.15;;;72.90;;
45198;SDS011;30941;46.422;18.772;2022-10-30T00:12:37;305.50;;;73.70;;
45198;SDS011;30941;46.422;18.772;2022-10-30T00:15:03;373.92;;;75.10;;
45198;SDS011;30941;46.422;18.772;2022-10-30T00:17:29;384.90;;;77.38;;
45198;SDS011;30941;46.422;18.772;2022-10-30T00:19:54;388.60;;;78.38;;
45198;SDS011;30941;46.422;18.772;2022-10-30T00:22:19;319.15;;;75.95;;
45198;SDS011;30941;46.422;18.772;2022-10-30T00:24:45;280.15;;;73.68;;
45198;SDS011;30941;46.422;18.772;2022-10-30T00:27:10;232.30;;;71.53;;
45198;SDS011;30941;46.422;18.772;2022-10-30T00:29:35;230.40;;;68.05;;
45198;SDS011;30941;46.422;18.772;2022-10-30T00:32:01;244.77;;;66.55;;
45198;SDS011;30941;46.422;18.772;2022-10-30T00:34:26;265.55;;;68.65;;
45198;SDS011;30941;46.422;18.772;2022-10-30T00:36:51;287.30;;;63.20;;
45198;SDS011;30941;46.422;18.772;2022-10-30T00:39:17;263.00;;;60.80;;
45198;SDS011;30941;46.422;18.772;2022-10-30T00:41:42;270.45;;;63.53;;
45198;SDS011;30941;46.422;18.772;2022-10-30T00:46:55;269.70;;;64.00;;
45198;SDS011;30941;46.422;18.772;2022-10-30T00:49:20;271.65;;;64.72;;
45198;SDS011;30941;46.422;18.772;2022-10-30T00:51:50;175.88;;;64.30;;
45198;SDS011;30941;46.422;18.772;2022-10-30T00:54:17;258.45;;;61.47;;
45198;SDS011;30941;46.422;18.772;2022-10-30T00:56:43;229.25;;;65.15;;
45198;SDS011;30941;46.422;18.772;2022-10-30T00:59:11;207.25;;;70.78;;
45198;SDS011;30941;46.422;18.772;2022-10-30T01:01:39;307.70;;;72.82;;
45198;SDS011;30941;46.422;18.772;2022-10-30T01:04:06;303.50;;;70.40;;
45198;SDS011;30941;46.422;18.772;2022-10-30T01:06:33;238.77;;;67.47;;
45198;SDS011;30941;46.422;18.772;2022-10-30T01:09:00;221.05;;;64.65;;
45198;SDS011;30941;46.422;18.772;2022-10-30T01:11:25;254.85;;;66.78;;
45198;SDS011;30941;46.422;18.772;2022-10-30T01:13:51;252.15;;;65.75;;
45198;SDS011;30941;46.422;18.772;2022-10-30T01:24:42;286.27;;;67.72;;
45198;SDS011;30941;46.422;18.772;2022-10-30T01:27:25;261.75;;;71.78;;
45198;SDS011;30941;46.422;18.772;2022-10-30T01:30:01;296.02;;;73.00;;
45198;SDS011;30941;46.422;18.772;2022-10-30T01:32:41;367.20;;;77.60;;
45198;SDS011;30941;46.422;18.772;2022-10-30T01:40:31;248.55;;;73.45;;
45198;SDS011;30941;46.422;18.772;2022-10-30T01:42:57;232.73;;;74.45;;
45198;SDS011;30941;46.422;18.772;2022-10-30T02:01:38;215.13;;;72.47;;
45198;SDS011;30941;46.422;18.772;2022-10-30T02:04:05;191.38;;;70.53;;
45198;SDS011;30941;46.422;18.772;2022-10-30T02:06:31;185.77;;;67.43;;
45198;SDS011;30941;46.422;18.772;2022-10-30T02:08:57;295.90;;;72.57;;
45198;SDS011;30941;46.422;18.772;2022-10-30T02:11:22;266.65;;;73.55;;
45198;SDS011;30941;46.422;18.772;2022-10-30T02:13:49;209.38;;;67.93;;
45198;SDS011;30941;46.422;18.772;2022-10-30T02:16:17;272.17;;;72.05;;
45198;SDS011;30941;46.422;18.772;2022-10-30T02:18:42;235.38;;;70.40;;
45198;SDS011;30941;46.422;18.772;2022-10-30T02:21:08;267.33;;;74.35;;
45198;SDS011;30941;46.422;18.772;2022-10-30T02:23:33;317.35;;;76.47;;
45198;SDS011;30941;46.422;18.772;2022-10-30T02:25:59;325.00;;;78.95;;
45198;SDS011;30941;46.422;18.772;2022-10-30T02:28:24;266.70;;;77.60;;
45198;SDS011;30941;46.422;18.772;2022-10-30T02:30:49;180.30;;;68.32;;
45198;SDS011;30941;46.422;18.772;2022-10-30T02:33:15;223.30;;;66.47;;
45198;SDS011;30941;46.422;18.772;2022-10-30T02:35:40;163.27;;;62.95;;
45198;SDS011;30941;46.422;18.772;2022-10-30T02:38:05;138.30;;;61.60;;
45198;SDS011;30941;46.422;18.772;2022-10-30T02:40:31;138.77;;;55.65;;
45198;SDS011;30941;46.422;18.772;2022-10-30T02:42:56;138.80;;;59.03;;
45198;SDS011;30941;46.422;18.772;2022-10-30T02:45:21;156.52;;;59.33;;
45198;SDS011;30941;46.422;18.772;2022-10-30T02:47:47;150.30;;;56.85;;
45198;SDS011;30941;46.422;18.772;2022-10-30T02:50:12;212.27;;;61.92;;
45198;SDS011;30941;46.422;18.772;2022-10-30T02:52:38;200.43;;;61.40;;
45198;SDS011;30941;46.422;18.772;2022-10-30T02:55:03;249.93;;;67.20;;
45198;SDS011;30941;46.422;18.772;2022-10-30T02:57:29;167.70;;;64.35;;
45198;SDS011;30941;46.422;18.772;2022-10-30T02:59:55;131.10;;;60.63;;
45198;SDS011;30941;46.422;18.772;2022-10-30T03:02:21;154.93;;;60.92;;
45198;SDS011;30941;46.422;18.772;2022-10-30T03:04:46;215.73;;;59.92;;
45198;SDS011;30941;46.422;18.772;2022-10-30T03:07:12;165.90;;;61.70;;
45198;SDS011;30941;46.422;18.772;2022-10-30T03:09:37;152.65;;;61.03;;
45198;SDS011;30941;46.422;18.772;2022-10-30T03:12:02;156.60;;;61.58;;
45198;SDS011;30941;46.422;18.772;2022-10-30T03:14:28;186.02;;;64.57;;
45198;SDS011;30941;46.422;18.772;2022-10-30T03:16:53;260.98;;;63.60;;
45198;SDS011;30941;46.422;18.772;2022-10-30T03:19:19;156.02;;;63.88;;
45198;SDS011;30941;46.422;18.772;2022-10-30T03:21:44;181.27;;;62.38;;
45198;SDS011;30941;46.422;18.772;2022-10-30T03:24:10;171.30;;;58.72;;
45198;SDS011;30941;46.422;18.772;2022-10-30T03:26:35;130.30;;;56.08;;
45198;SDS011;30941;46.422;18.772;2022-10-30T03:29:00;136.48;;;53.28;;
45198;SDS011;30941;46.422;18.772;2022-10-30T03:31:26;127.60;;;54.40;;
45198;SDS011;30941;46.422;18.772;2022-10-30T03:33:51;113.13;;;49.08;;
45198;SDS011;30941;46.422;18.772;2022-10-30T03:36:16;104.28;;;48.60;;
45198;SDS011;30941;46.422;18.772;2022-10-30T03:38:42;141.57;;;52.95;;
45198;SDS011;30941;46.422;18.772;2022-10-30T03:41:07;140.60;;;53.15;;
45198;SDS011;30941;46.422;18.772;2022-10-30T03:43:33;138.38;;;55.55;;
45198;SDS011;30941;46.422;18.772;2022-10-30T03:45:58;118.32;;;55.83;;
45198;SDS011;30941;46.422;18.772;2022-10-30T03:48:24;176.15;;;55.45;;
45198;SDS011;30941;46.422;18.772;2022-10-30T03:50:58;168.82;;;59.75;;
45198;SDS011;30941;46.422;18.772;2022-10-30T03:53:24;160.33;;;58.73;;
45198;SDS011;30941;46.422;18.772;2022-10-30T03:55:50;144.95;;;58.03;;
45198;SDS011;30941;46.422;18.772;2022-10-30T03:58:16;151.18;;;58.25;;
45198;SDS011;30941;46.422;18.772;2022-10-30T04:00:42;132.30;;;57.20;;
45198;SDS011;30941;46.422;18.772;2022-10-30T04:03:07;144.27;;;56.65;;
45198;SDS011;30941;46.422;18.772;2022-10-30T04:05:33;127.25;;;59.38;;
45198;SDS011;30941;46.422;18.772;2022-10-30T04:08:00;167.18;;;61.55;;
45198;SDS011;30941;46.422;18.772;2022-10-30T04:10:27;172.05;;;62.83;;
45198;SDS011;30941;46.422;18.772;2022-10-30T04:12:58;206.18;;;65.82;;
45198;SDS011;30941;46.422;18.772;2022-10-30T04:15:28;152.63;;;62.08;;
45198;SDS011;30941;46.422;18.772;2022-10-30T04:17:53;157.70;;;66.20;;
45198;SDS011;30941;46.422;18.772;2022-10-30T04:20:19;149.25;;;65.28;;
45198;SDS011;30941;46.422;18.772;2022-10-30T04:22:45;156.43;;;66.22;;
45198;SDS011;30941;46.422;18.772;2022-10-30T04:25:10;158.20;;;63.03;;
45198;SDS011;30941;46.422;18.772;2022-10-30T04:27:42;141.88;;;60.88;;
45198;SDS011;30941;46.422;18.772;2022-10-30T04:30:09;179.37;;;58.13;;
45198;SDS011;30941;46.422;18.772;2022-10-30T04:32:36;175.02;;;58.72;;
45198;SDS011;30941;46.422;18.772;2022-10-30T04:35:01;155.90;;;58.75;;
45198;SDS011;30941;46.422;18.772;2022-10-30T04:37:28;138.82;;;57.28;;
45198;SDS011;30941;46.422;18.772;2022-10-30T04:39:53;157.38;;;54.63;;
45198;SDS011;30941;46.422;18.772;2022-10-30T04:42:19;112.68;;;55.75;;
45198;SDS011;30941;46.422;18.772;2022-10-30T04:44:44;128.30;;;53.45;;
45198;SDS011;30941;46.422;18.772;2022-10-30T04:47:09;102.28;;;52.75;;
45198;SDS011;30941;46.422;18.772;2022-10-30T04:49:35;97.43;;;50.03;;
45198;SDS011;30941;46.422;18.772;2022-10-30T04:52:00;86.72;;;47.97;;
45198;SDS011;30941;46.422;18.772;2022-10-30T04:54:25;85.90;;;47.28;;
45198;SDS011;30941;46.422;18.772;2022-10-30T04:56:52;84.22;;;47.67;;
45198;SDS011;30941;46.422;18.772;2022-10-30T04:59:18;93.10;;;44.60;;
45198;SDS011;30941;46.422;18.772;2022-10-30T05:01:43;80.50;;;45.55;;
45198;SDS011;30941;46.422;18.772;2022-10-30T05:04:08;104.13;;;46.67;;
45198;SDS011;30941;46.422;18.772;2022-10-30T05:06:34;102.38;;;46.90;;
45198;SDS011;30941;46.422;18.772;2022-10-30T05:08:59;87.97;;;47.00;;
45198;SDS011;30941;46.422;18.772;2022-10-30T05:11:24;91.63;;;48.72;;
45198;SDS011;30941;46.422;18.772;2022-10-30T05:13:51;98.38;;;49.03;;
45198;SDS011;30941;46.422;18.772;2022-10-30T05:16:16;101.63;;;46.13;;
45198;SDS011;30941;46.422;18.772;2022-10-30T05:18:42;90.03;;;48.38;;
45198;SDS011;30941;46.422;18.772;2022-10-30T05:21:07;75.95;;;44.88;;
45198;SDS011;30941;46.422;18.772;2022-10-30T05:23:33;82.97;;;46.42;;
45198;SDS011;30941;46.422;18.772;2022-10-30T05:25:59;80.13;;;44.65;;
45198;SDS011;30941;46.422;18.772;2022-10-30T05:28:25;98.45;;;47.83;;
45198;SDS011;30941;46.422;18.772;2022-10-30T05:30:51;120.18;;;47.05;;
45198;SDS011;30941;46.422;18.772;2022-10-30T05:33:17;122.10;;;49.63;;
45198;SDS011;30941;46.422;18.772;2022-10-30T05:35:42;108.07;;;50.88;;
45198;SDS011;30941;46.422;18.772;2022-10-30T05:38:08;115.03;;;51.50;;
45198;SDS011;30941;46.422;18.772;2022-10-30T05:40:34;107.60;;;52.63;;
45198;SDS011;30941;46.422;18.772;2022-10-30T05:43:00;110.30;;;51.15;;
45198;SDS011;30941;46.422;18.772;2022-10-30T05:45:25;100.20;;;47.38;;
45198;SDS011;30941;46.422;18.772;2022-10-30T05:47:55;95.63;;;48.30;;
45198;SDS011;30941;46.422;18.772;2022-10-30T05:50:21;87.18;;;45.40;;
45198;SDS011;30941;46.422;18.772;2022-10-30T05:52:47;86.25;;;46.22;;
45198;SDS011;30941;46.422;18.772;2022-10-30T05:55:12;86.38;;;44.25;;
45198;SDS011;30941;46.422;18.772;2022-10-30T05:57:37;76.60;;;45.13;;
45198;SDS011;30941;46.422;18.772;2022-10-30T06:00:03;76.88;;;45.70;;
45198;SDS011;30941;46.422;18.772;2022-10-30T06:02:29;71.80;;;44.50;;
45198;SDS011;30941;46.422;18.772;2022-10-30T06:04:54;72.50;;;44.47;;
45198;SDS011;30941;46.422;18.772;2022-10-30T06:07:19;81.07;;;44.85;;
45198;SDS011;30941;46.422;18.772;2022-10-30T06:09:45;83.30;;;45.85;;
45198;SDS011;30941;46.422;18.772;2022-10-30T06:12:10;71.32;;;45.90;;
45198;SDS011;30941;46.422;18.772;2022-10-30T06:14:35;78.80;;;48.33;;
45198;SDS011;30941;46.422;18.772;2022-10-30T06:17:01;73.75;;;47.92;;
45198;SDS011;30941;46.422;18.772;2022-10-30T06:19:26;77.30;;;48.30;;
45198;SDS011;30941;46.422;18.772;2022-10-30T06:21:51;76.43;;;48.65;;
45198;SDS011;30941;46.422;18.772;2022-10-30T06:24:18;75.15;;;46.65;;
45198;SDS011;30941;46.422;18.772;2022-10-30T06:26:44;77.65;;;46.85;;
45198;SDS011;30941;46.422;18.772;2022-10-30T06:29:09;68.20;;;43.88;;
45198;SDS011;30941;46.422;18.772;2022-10-30T06:31:34;76.47;;;46.38;;
45198;SDS011;30941;46.422;18.772;2022-10-30T06:34:00;63.38;;;42.20;;
45198;SDS011;30941;46.422;18.772;2022-10-30T06:36:25;81.38;;;42.95;;
45198;SDS011;30941;46.422;18.772;2022-10-30T06:38:51;88.20;;;52.22;;
45198;SDS011;30941;46.422;18.772;2022-10-30T06:41:16;84.07;;;48.75;;
45198;SDS011;30941;46.422;18.772;2022-10-30T06:43:41;69.00;;;44.97;;
45198;SDS011;30941;46.422;18.772;2022-10-30T06:46:06;69.85;;;42.33;;
45198;SDS011;30941;46.422;18.772;2022-10-30T06:48:32;65.88;;;41.80;;
45198;SDS011;30941;46.422;18.772;2022-10-30T06:50:58;71.32;;;41.45;;
45198;SDS011;30941;46.422;18.772;2022-10-30T06:53:24;65.22;;;41.60;;
45198;SDS011;30941;46.422;18.772;2022-10-30T06:55:56;62.95;;;38.72;;
45198;SDS011;30941;46.422;18.772;2022-10-30T06:58:23;74.65;;;39.88;;
45198;SDS011;30941;46.422;18.772;2022-10-30T07:00:48;54.72;;;37.00;;
45198;SDS011;30941;46.422;18.772;2022-10-30T07:03:14;56.97;;;38.58;;
45198;SDS011;30941;46.422;18.772;2022-10-30T07:05:39;60.80;;;39.83;;
45198;SDS011;30941;46.422;18.772;2022-10-30T07:08:05;69.20;;;40.90;;
45198;SDS011;30941;46.422;18.772;2022-10-30T07:10:30;60.08;;;39.13;;
45198;SDS011;30941;46.422;18.772;2022-10-30T07:12:55;55.28;;;36.75;;
45198;SDS011;30941;46.422;18.772;2022-10-30T07:15:22;54.00;;;35.30;;
45198;SDS011;30941;46.422;18.772;2022-10-30T07:17:54;54.33;;;37.17;;
45198;SDS011;30941;46.422;18.772;2022-10-30T07:20:21;55.67;;;36.08;;
45198;SDS011;30941;46.422;18.772;2022-10-30T07:22:47;66.15;;;37.85;;
45198;SDS011;30941;46.422;18.772;2022-10-30T07:25:12;56.05;;;35.08;;
45198;SDS011;30941;46.422;18.772;2022-10-30T07:27:44;56.10;;;34.88;;
45198;SDS011;30941;46.422;18.772;2022-10-30T07:30:11;57.60;;;35.78;;
45198;SDS011;30941;46.422;18.772;2022-10-30T07:32:37;52.22;;;34.28;;
45198;SDS011;30941;46.422;18.772;2022-10-30T07:35:02;45.38;;;32.90;;
45198;SDS011;30941;46.422;18.772;2022-10-30T07:37:28;49.13;;;29.75;;
45198;SDS011;30941;46.422;18.772;2022-10-30T07:39:54;45.13;;;32.72;;
45198;SDS011;30941;46.422;18.772;2022-10-30T07:42:19;46.70;;;31.63;;
45198;SDS011;30941;46.422;18.772;2022-10-30T07:44:44;48.22;;;32.47;;
45198;SDS011;30941;46.422;18.772;2022-10-30T07:47:10;47.53;;;31.45;;
45198;SDS011;30941;46.422;18.772;2022-10-30T07:49:35;48.13;;;31.40;;
45198;SDS011;30941;46.422;18.772;2022-10-30T07:52:00;44.03;;;30.55;;
45198;SDS011;30941;46.422;18.772;2022-10-30T07:54:26;37.47;;;28.00;;
45198;SDS011;30941;46.422;18.772;2022-10-30T07:56:51;40.05;;;28.80;;
45198;SDS011;30941;46.422;18.772;2022-10-30T07:59:17;39.03;;;27.20;;
45198;SDS011;30941;46.422;18.772;2022-10-30T08:01:42;39.33;;;26.95;;
45198;SDS011;30941;46.422;18.772;2022-10-30T08:04:07;38.35;;;27.88;;
45198;SDS011;30941;46.422;18.772;2022-10-30T08:06:35;40.38;;;28.23;;
45198;SDS011;30941;46.422;18.772;2022-10-30T08:09:00;50.63;;;30.33;;
45198;SDS011;30941;46.422;18.772;2022-10-30T08:11:25;46.78;;;30.60;;
45198;SDS011;30941;46.422;18.772;2022-10-30T08:13:51;50.30;;;29.50;;
45198;SDS011;30941;46.422;18.772;2022-10-30T08:16:16;43.65;;;29.60;;
45198;SDS011;30941;46.422;18.772;2022-10-30T08:18:42;50.75;;;32.25;;
45198;SDS011;30941;46.422;18.772;2022-10-30T08:21:08;50.50;;;31.92;;
45198;SDS011;30941;46.422;18.772;2022-10-30T08:23:33;45.72;;;31.00;;
45198;SDS011;30941;46.422;18.772;2022-10-30T08:25:59;39.90;;;28.65;;
45198;SDS011;30941;46.422;18.772;2022-10-30T08:28:25;45.63;;;30.00;;
45198;SDS011;30941;46.422;18.772;2022-10-30T08:30:50;44.97;;;29.73;;
45198;SDS011;30941;46.422;18.772;2022-10-30T08:33:15;45.58;;;30.70;;
45198;SDS011;30941;46.422;18.772;2022-10-30T08:35:51;44.92;;;29.90;;
45198;SDS011;30941;46.422;18.772;2022-10-30T08:38:17;43.28;;;30.90;;
45198;SDS011;30941;46.422;18.772;2022-10-30T08:40:43;48.83;;;31.55;;
45198;SDS011;30941;46.422;18.772;2022-10-30T08:43:09;50.67;;;32.42;;
45198;SDS011;30941;46.422;18.772;2022-10-30T08:45:34;49.17;;;33.08;;
45198;SDS011;30941;46.422;18.772;2022-10-30T08:48:00;45.90;;;32.95;;
45198;SDS011;30941;46.422;18.772;2022-10-30T08:50:30;57.95;;;35.40;;
45198;SDS011;30941;46.422;18.772;2022-10-30T08:53:03;55.78;;;35.83;;
45198;SDS011;30941;46.422;18.772;2022-10-30T08:55:31;53.78;;;35.95;;
45198;SDS011;30941;46.422;18.772;2022-10-30T08:57:57;60.45;;;37.25;;
45198;SDS011;30941;46.422;18.772;2022-10-30T09:00:22;54.00;;;35.40;;
45198;SDS011;30941;46.422;18.772;2022-10-30T09:02:48;53.42;;;37.13;;
45198;SDS011;30941;46.422;18.772;2022-10-30T09:05:13;54.88;;;38.72;;
45198;SDS011;30941;46.422;18.772;2022-10-30T09:07:38;50.17;;;33.85;;
45198;SDS011;30941;46.422;18.772;2022-10-30T09:10:04;49.58;;;33.10;;
45198;SDS011;30941;46.422;18.772;2022-10-30T09:12:30;52.42;;;34.88;;
45198;SDS011;30941;46.422;18.772;2022-10-30T09:14:55;59.30;;;40.63;;
45198;SDS011;30941;46.422;18.772;2022-10-30T09:17:20;53.63;;;36.17;;
45198;SDS011;30941;46.422;18.772;2022-10-30T09:19:46;167.80;;;94.15;;
45198;SDS011;30941;46.422;18.772;2022-10-30T09:22:11;67.10;;;43.78;;
45198;SDS011;30941;46.422;18.772;2022-10-30T09:24:36;53.58;;;34.95;;
45198;SDS011;30941;46.422;18.772;2022-10-30T09:29:48;62.42;;;42.17;;
45198;SDS011;30941;46.422;18.772;2022-10-30T09:32:13;59.00;;;38.63;;
45198;SDS011;30941;46.422;18.772;2022-10-30T09:34:38;61.63;;;38.28;;
45198;SDS011;30941;46.422;18.772;2022-10-30T09:37:05;64.15;;;40.85;;
45198;SDS011;30941;46.422;18.772;2022-10-30T09:39:30;61.67;;;39.33;;
45198;SDS011;30941;46.422;18.772;2022-10-30T09:50:02;52.83;;;35.20;;
45198;SDS011;30941;46.422;18.772;2022-10-30T09:52:42;68.30;;;38.90;;
45198;SDS011;30941;46.422;18.772;2022-10-30T10:01:01;58.83;;;38.28;;
45198;SDS011;30941;46.422;18.772;2022-10-30T10:06:22;47.53;;;31.13;;
45198;SDS011;30941;46.422;18.772;2022-10-30T10:11:41;51.72;;;32.65;;
45198;SDS011;30941;46.422;18.772;2022-10-30T10:14:25;54.92;;;34.38;;
45198;SDS011;30941;46.422;18.772;2022-10-30T10:16:53;54.78;;;34.90;;
45198;SDS011;30941;46.422;18.772;2022-10-30T10:21:58;58.47;;;38.17;;
45198;SDS011;30941;46.422;18.772;2022-10-30T10:24:26;61.45;;;37.42;;
45198;SDS011;30941;46.422;18.772;2022-10-30T10:27:06;59.92;;;36.28;;
45198;SDS011;30941;46.422;18.772;2022-10-30T10:35:36;63.80;;;37.05;;
45198;SDS011;30941;46.422;18.772;2022-10-30T10:41:10;54.10;;;35.50;;
45198;SDS011;30941;46.422;18.772;2022-10-30T10:43:57;62.72;;;36.00;;
45198;SDS011;30941;46.422;18.772;2022-10-30T10:52:02;52.58;;;34.83;;
45198;SDS011;30941;46.422;18.772;2022-10-30T10:54:36;51.55;;;34.13;;
45198;SDS011;30941;46.422;18.772;2022-10-30T10:57:05;51.78;;;33.85;;
45198;SDS011;30941;46.422;18.772;2022-10-30T10:59:33;52.25;;;33.65;;
45198;SDS011;30941;46.422;18.772;2022-10-30T11:07:18;53.97;;;34.63;;
45198;SDS011;30941;46.422;18.772;2022-10-30T11:09:46;48.65;;;31.77;;
45198;SDS011;30941;46.422;18.772;2022-10-30T11:12:16;47.67;;;31.70;;
45198;SDS011;30941;46.422;18.772;2022-10-30T11:14:43;47.05;;;31.38;;
45198;SDS011;30941;46.422;18.772;2022-10-30T11:20:04;45.83;;;30.35;;
45198;SDS011;30941;46.422;18.772;2022-10-30T11:22:39;41.08;;;28.48;;
45198;SDS011;30941;46.422;18.772;2022-10-30T11:25:23;45.63;;;30.17;;
45198;SDS011;30941;46.422;18.772;2022-10-30T11:27:54;41.33;;;29.23;;
45198;SDS011;30941;46.422;18.772;2022-10-30T11:30:22;45.53;;;30.92;;
45198;SDS011;30941;46.422;18.772;2022-10-30T11:32:49;43.78;;;31.25;;
45198;SDS011;30941;46.422;18.772;2022-10-30T11:35:15;44.10;;;29.80;;
45198;SDS011;30941;46.422;18.772;2022-10-30T11:37:42;40.20;;;29.02;;
45198;SDS011;30941;46.422;18.772;2022-10-30T11:42:34;41.08;;;30.15;;
45198;SDS011;30941;46.422;18.772;2022-10-30T11:44:59;40.97;;;29.63;;
45198;SDS011;30941;46.422;18.772;2022-10-30T11:47:30;40.47;;;28.70;;
45198;SDS011;30941;46.422;18.772;2022-10-30T11:50:00;38.58;;;28.45;;
45198;SDS011;30941;46.422;18.772;2022-10-30T11:52:27;43.60;;;29.08;;
45198;SDS011;30941;46.422;18.772;2022-10-30T11:57:53;41.78;;;28.98;;
45198;SDS011;30941;46.422;18.772;2022-10-30T12:00:26;42.60;;;29.10;;
45198;SDS011;30941;46.422;18.772;2022-10-30T12:02:54;46.17;;;31.77;;
45198;SDS011;30941;46.422;18.772;2022-10-30T12:10:32;44.63;;;30.52;;
45198;SDS011;30941;46.422;18.772;2022-10-30T12:13:05;40.38;;;30.73;;
45198;SDS011;30941;46.422;18.772;2022-10-30T12:15:37;47.38;;;31.60;;
45198;SDS011;30941;46.422;18.772;2022-10-30T12:18:04;45.00;;;30.60;;
45198;SDS011;30941;46.422;18.772;2022-10-30T12:20:31;45.10;;;31.23;;
45198;SDS011;30941;46.422;18.772;2022-10-30T12:22:57;43.72;;;30.08;;
45198;SDS011;30941;46.422;18.772;2022-10-30T12:25:23;44.50;;;29.52;;
45198;SDS011;30941;46.422;18.772;2022-10-30T12:27:50;40.28;;;28.13;;
45198;SDS011;30941;46.422;18.772;2022-10-30T12:30:36;43.30;;;29.80;;
45198;SDS011;30941;46.422;18.772;2022-10-30T12:33:13;48.95;;;30.75;;
45198;SDS011;30941;46.422;18.772;2022-10-30T12:35:43;43.85;;;31.73;;
45198;SDS011;30941;46.422;18.772;2022-10-30T12:40:45;44.10;;;30.75;;
45198;SDS011;30941;46.422;18.772;2022-10-30T12:43:23;43.67;;;30.48;;
45198;SDS011;30941;46.422;18.772;2022-10-30T12:45:50;43.60;;;30.08;;
45198;SDS011;30941;46.422;18.772;2022-10-30T12:48:34;43.45;;;30.25;;
45198;SDS011;30941;46.422;18.772;2022-10-30T12:51:08;45.10;;;31.48;;
45198;SDS011;30941;46.422;18.772;2022-10-30T12:53:56;47.90;;;30.30;;
45198;SDS011;30941;46.422;18.772;2022-10-30T12:56:31;44.17;;;30.25;;
45198;SDS011;30941;46.422;18.772;2022-10-30T13:02:18;47.30;;;32.03;;
45198;SDS011;30941;46.422;18.772;2022-10-30T13:04:49;50.47;;;32.42;;
45198;SDS011;30941;46.422;18.772;2022-10-30T13:12:37;48.40;;;33.13;;
45198;SDS011;30941;46.422;18.772;2022-10-30T13:15:05;48.70;;;31.77;;
45198;SDS011;30941;46.422;18.772;2022-10-30T13:17:36;50.55;;;33.15;;
45198;SDS011;30941;46.422;18.772;2022-10-30T13:20:04;53.20;;;34.63;;
45198;SDS011;30941;46.422;18.772;2022-10-30T13:25:23;50.70;;;33.97;;
45198;SDS011;30941;46.422;18.772;2022-10-30T13:27:59;49.40;;;33.25;;
45198;SDS011;30941;46.422;18.772;2022-10-30T13:30:27;46.90;;;30.98;;
45198;SDS011;30941;46.422;18.772;2022-10-30T13:33:13;43.97;;;30.42;;
45198;SDS011;30941;46.422;18.772;2022-10-30T13:43:58;43.22;;;29.85;;
45198;SDS011;30941;46.422;18.772;2022-10-30T13:52:01;51.08;;;33.17;;
45198;SDS011;30941;46.422;18.772;2022-10-30T13:54:41;51.65;;;33.85;;
45198;SDS011;30941;46.422;18.772;2022-10-30T13:57:30;53.40;;;34.80;;
45198;SDS011;30941;46.422;18.772;2022-10-30T14:00:16;57.08;;;35.10;;
45198;SDS011;30941;46.422;18.772;2022-10-30T14:11:01;54.42;;;35.10;;
45198;SDS011;30941;46.422;18.772;2022-10-30T14:19:40;43.65;;;28.95;;
45198;SDS011;30941;46.422;18.772;2022-10-30T14:22:31;43.40;;;28.70;;
45198;SDS011;30941;46.422;18.772;2022-10-30T14:24:56;46.72;;;31.58;;
45198;SDS011;30941;46.422;18.772;2022-10-30T14:27:32;50.50;;;32.03;;
45198;SDS011;30941;46.422;18.772;2022-10-30T14:29:58;44.50;;;30.98;;
45198;SDS011;30941;46.422;18.772;2022-10-30T14:37:14;43.58;;;30.00;;
45198;SDS011;30941;46.422;18.772;2022-10-30T14:39:43;48.58;;;33.03;;
45198;SDS011;30941;46.422;18.772;2022-10-30T14:53:09;53.80;;;35.60;;
45198;SDS011;30941;46.422;18.772;2022-10-30T14:58:31;57.13;;;36.20;;
45198;SDS011;30941;46.422;18.772;2022-10-30T15:06:19;58.47;;;38.50;;
45198;SDS011;30941;46.422;18.772;2022-10-30T15:08:56;55.00;;;36.80;;
45198;SDS011;30941;46.422;18.772;2022-10-30T15:13:51;55.03;;;37.38;;
45198;SDS011;30941;46.422;18.772;2022-10-30T15:16:21;62.53;;;40.30;;
45198;SDS011;30941;46.422;18.772;2022-10-30T15:18:51;56.85;;;37.92;;
45198;SDS011;30941;46.422;18.772;2022-10-30T15:23:49;54.03;;;35.70;;
45198;SDS011;30941;46.422;18.772;2022-10-30T15:26:18;63.25;;;38.35;;
45198;SDS011;30941;46.422;18.772;2022-10-30T15:28:46;60.85;;;38.28;;
45198;SDS011;30941;46.422;18.772;2022-10-30T15:31:23;63.25;;;40.30;;
45198;SDS011;30941;46.422;18.772;2022-10-30T15:33:50;72.93;;;46.47;;
45198;SDS011;30941;46.422;18.772;2022-10-30T15:36:19;68.97;;;43.65;;
45198;SDS011;30941;46.422;18.772;2022-10-30T15:41:30;58.88;;;38.20;;
45198;SDS011;30941;46.422;18.772;2022-10-30T15:43:56;53.50;;;34.33;;
45198;SDS011;30941;46.422;18.772;2022-10-30T15:46:23;55.28;;;37.42;;
45198;SDS011;30941;46.422;18.772;2022-10-30T15:48:48;70.28;;;49.40;;
45198;SDS011;30941;46.422;18.772;2022-10-30T15:51:14;63.63;;;41.45;;
45198;SDS011;30941;46.422;18.772;2022-10-30T15:56:18;60.95;;;38.60;;
45198;SDS011;30941;46.422;18.772;2022-10-30T15:59:22;65.97;;;38.47;;
45198;SDS011;30941;46.422;18.772;2022-10-30T16:01:54;75.35;;;44.95;;
45198;SDS011;30941;46.422;18.772;2022-10-30T16:04:22;76.07;;;44.20;;
45198;SDS011;30941;46.422;18.772;2022-10-30T16:07:14;64.93;;;40.28;;
45198;SDS011;30941;46.422;18.772;2022-10-30T16:09:53;64.88;;;38.67;;
45198;SDS011;30941;46.422;18.772;2022-10-30T16:12:22;67.88;;;41.42;;
45198;SDS011;30941;46.422;18.772;2022-10-30T16:14:55;57.72;;;35.47;;
45198;SDS011;30941;46.422;18.772;2022-10-30T16:17:21;72.95;;;40.92;;
45198;SDS011;30941;46.422;18.772;2022-10-30T16:19:52;67.20;;;39.22;;
45198;SDS011;30941;46.422;18.772;2022-10-30T16:22:21;66.45;;;41.28;;
45198;SDS011;30941;46.422;18.772;2022-10-30T16:24:49;70.28;;;41.50;;
45198;SDS011;30941;46.422;18.772;2022-10-30T16:27:18;78.80;;;43.08;;
45198;SDS011;30941;46.422;18.772;2022-10-30T16:29:45;79.25;;;43.10;;
45198;SDS011;30941;46.422;18.772;2022-10-30T16:32:13;85.20;;;47.13;;
45198;SDS011;30941;46.422;18.772;2022-10-30T16:34:40;87.65;;;46.17;;
45198;SDS011;30941;46.422;18.772;2022-10-30T16:37:09;80.53;;;42.08;;
45198;SDS011;30941;46.422;18.772;2022-10-30T16:39:38;88.13;;;44.45;;
45198;SDS011;30941;46.422;18.772;2022-10-30T16:42:04;80.25;;;43.97;;
45198;SDS011;30941;46.422;18.772;2022-10-30T16:44:30;77.97;;;42.95;;
45198;SDS011;30941;46.422;18.772;2022-10-30T16:47:02;70.35;;;41.22;;
45198;SDS011;30941;46.422;18.772;2022-10-30T16:49:31;62.47;;;35.75;;
45198;SDS011;30941;46.422;18.772;2022-10-30T16:51:59;69.15;;;38.83;;
45198;SDS011;30941;46.422;18.772;2022-10-30T16:54:30;72.43;;;39.45;;